createdAt,value
2018-03-17T00:01:48.916Z,3.43
2018-03-17T00:04:17.216Z,4.03
2018-03-17T00:06:44.739Z,3.90
2018-03-17T00:09:12.323Z,4.30
2018-03-17T00:11:39.929Z,3.93
2018-03-17T00:14:09.154Z,4.00
2018-03-17T00:16:36.752Z,3.90
2018-03-17T00:19:04.582Z,4.57
2018-03-17T00:21:32.234Z,3.50
2018-03-17T00:24:00.528Z,3.83
2018-03-17T00:26:28.067Z,3.53
2018-03-17T00:28:55.669Z,4.07
2018-03-17T00:31:23.233Z,3.80
2018-03-17T00:33:51.160Z,4.07
2018-03-17T00:36:19.179Z,4.27
2018-03-17T00:38:46.784Z,3.93
2018-03-17T00:41:15.143Z,3.73
2018-03-17T00:43:44.239Z,3.70
2018-03-17T00:46:11.767Z,4.13
2018-03-17T00:48:39.379Z,3.93
2018-03-17T00:51:06.981Z,4.07
2018-03-17T00:53:34.516Z,3.60
2018-03-17T00:56:02.096Z,4.00
2018-03-17T00:58:29.698Z,4.40
2018-03-17T01:00:58.066Z,3.90
2018-03-17T01:03:25.600Z,4.40
2018-03-17T01:05:53.154Z,3.97
2018-03-17T01:08:20.664Z,4.47
2018-03-17T01:10:50.181Z,3.90
2018-03-17T01:13:17.791Z,4.00
2018-03-17T01:15:45.320Z,3.97
2018-03-17T01:18:12.828Z,3.90
2018-03-17T01:20:40.383Z,3.90
2018-03-17T01:23:08.312Z,3.40
2018-03-17T01:25:35.840Z,4.30
2018-03-17T01:28:04.117Z,3.50
2018-03-17T01:30:31.662Z,4.03
2018-03-17T01:32:59.191Z,3.53
2018-03-17T01:35:26.754Z,3.90
2018-03-17T01:37:55.278Z,3.40
2018-03-17T01:40:22.853Z,3.80
2018-03-17T01:42:50.383Z,3.43
2018-03-17T01:45:17.927Z,3.33
2018-03-17T01:47:45.436Z,3.10
2018-03-17T01:50:12.961Z,4.13
2018-03-17T01:52:40.486Z,3.27
2018-03-17T01:55:08.024Z,3.80
2018-03-17T01:57:35.541Z,4.10
2018-03-17T02:00:03.069Z,3.73
2018-03-17T02:02:30.695Z,4.03
2018-03-17T02:04:59.060Z,4.10
2018-03-17T02:07:28.979Z,3.67
2018-03-17T02:09:56.511Z,3.80
2018-03-17T02:12:24.025Z,3.97
2018-03-17T02:14:51.589Z,3.77
2018-03-17T02:17:19.528Z,3.70
2018-03-17T02:19:47.146Z,3.53
2018-03-17T02:22:14.761Z,3.50
2018-03-17T02:24:42.337Z,3.90
2018-03-17T02:27:10.210Z,3.70
2018-03-17T02:29:39.438Z,3.77
2018-03-17T02:32:07.746Z,3.70
2018-03-17T02:34:35.282Z,3.50
2018-03-17T02:37:03.207Z,3.80
2018-03-17T02:39:31.081Z,3.87
2018-03-17T02:41:58.617Z,4.20
2018-03-17T02:44:26.506Z,3.50
2018-03-17T02:46:54.824Z,3.47
2018-03-17T02:49:22.356Z,3.40
2018-03-17T02:51:50.666Z,3.40
2018-03-17T02:54:18.179Z,3.80
2018-03-17T02:56:48.253Z,4.10
2018-03-17T02:59:15.782Z,3.77
2018-03-17T03:01:43.325Z,3.80
2018-03-17T03:04:11.630Z,3.97
2018-03-17T03:06:39.192Z,3.53
2018-03-17T03:09:06.746Z,4.10
2018-03-17T03:11:34.273Z,4.27
2018-03-17T03:14:02.546Z,3.87
2018-03-17T03:16:30.857Z,4.00
2018-03-17T03:18:58.380Z,3.60
2018-03-17T03:21:25.921Z,4.23
2018-03-17T03:23:53.434Z,3.77
2018-03-17T03:26:20.956Z,4.13
2018-03-17T03:28:49.253Z,3.40
2018-03-17T03:31:16.780Z,4.03
2018-03-17T03:33:44.318Z,3.80
2018-03-17T03:36:11.845Z,4.03
2018-03-17T03:38:39.363Z,3.77
2018-03-17T03:41:07.653Z,4.30
2018-03-17T03:43:35.160Z,3.97
2018-03-17T03:46:02.689Z,3.93
2018-03-17T03:48:30.202Z,3.83
2018-03-17T03:50:58.493Z,4.30
2018-03-17T03:53:25.996Z,4.03
2018-03-17T03:55:53.524Z,4.87
2018-03-17T03:58:21.068Z,4.20
2018-03-17T04:00:48.585Z,4.60
2018-03-17T04:03:16.089Z,4.33
2018-03-17T04:05:43.617Z,3.70
2018-03-17T04:08:11.135Z,3.83
2018-03-17T04:10:38.645Z,4.20
2018-03-17T04:13:06.939Z,3.73
2018-03-17T04:15:34.454Z,3.97
2018-03-17T04:18:01.985Z,3.90
2018-03-17T04:20:29.507Z,3.50
2018-03-17T04:22:57.051Z,4.40
2018-03-17T04:25:25.339Z,4.03
2018-03-17T04:27:52.860Z,3.87
2018-03-17T04:30:20.369Z,4.10
2018-03-17T04:32:47.898Z,4.27
2018-03-17T04:35:16.168Z,4.23
2018-03-17T04:37:44.457Z,4.40
2018-03-17T04:40:12.731Z,4.50
2018-03-17T04:42:41.029Z,4.40
2018-03-17T04:45:08.536Z,4.43
2018-03-17T04:47:36.065Z,4.30
2018-03-17T04:50:03.576Z,4.40
2018-03-17T04:52:31.885Z,4.43
2018-03-17T04:54:59.392Z,4.27
2018-03-17T04:57:26.924Z,4.13
2018-03-17T04:59:54.445Z,4.50
2018-03-17T05:02:21.973Z,3.80
2018-03-17T05:04:49.485Z,4.33
2018-03-17T05:07:17.011Z,4.20
2018-03-17T05:09:44.529Z,4.27
2018-03-17T05:12:12.052Z,4.67
2018-03-17T05:14:39.562Z,4.63
2018-03-17T05:17:07.097Z,4.73
2018-03-17T05:19:34.621Z,4.40
2018-03-17T05:22:02.176Z,4.67
2018-03-17T05:24:29.685Z,4.70
2018-03-17T05:26:57.209Z,4.00
2018-03-17T05:29:24.718Z,4.17
2018-03-17T05:31:52.243Z,4.03
2018-03-17T05:34:19.750Z,4.20
2018-03-17T05:36:47.289Z,4.40
2018-03-17T05:39:14.801Z,4.57
2018-03-17T05:41:42.329Z,4.57
2018-03-17T05:44:09.844Z,4.07
2018-03-17T05:46:37.377Z,4.60
2018-03-17T05:49:04.886Z,4.70
2018-03-17T05:51:32.417Z,4.93
2018-03-17T05:53:59.945Z,3.83
2018-03-17T05:56:27.482Z,4.07
2018-03-17T05:58:54.991Z,4.53
2018-03-17T06:01:22.505Z,4.20
2018-03-17T06:03:50.823Z,4.43
2018-03-17T06:06:18.333Z,4.27
2018-03-17T06:08:45.861Z,4.70
2018-03-17T06:11:14.137Z,4.40
2018-03-17T06:13:42.435Z,4.87
2018-03-17T06:16:09.947Z,4.80
2018-03-17T06:18:37.484Z,4.83
2018-03-17T06:21:04.993Z,4.63
2018-03-17T06:23:33.295Z,4.43
2018-03-17T06:26:00.837Z,4.57
2018-03-17T06:28:28.364Z,4.93
2018-03-17T06:30:55.872Z,4.60
2018-03-17T06:33:23.400Z,4.40
2018-03-17T06:35:51.676Z,4.37
2018-03-17T06:38:19.216Z,4.60
2018-03-17T06:40:47.506Z,5.10
2018-03-17T06:43:15.798Z,5.10
2018-03-17T06:45:43.309Z,4.70
2018-03-17T06:48:10.845Z,5.00
2018-03-17T06:50:38.357Z,5.47
2018-03-17T06:53:06.642Z,4.87
2018-03-17T06:55:34.165Z,5.07
2018-03-17T06:58:01.692Z,4.50
2018-03-17T07:00:29.210Z,4.73
2018-03-17T07:02:56.741Z,4.67
2018-03-17T07:05:24.259Z,4.60
2018-03-17T07:07:51.797Z,4.60
2018-03-17T07:10:19.568Z,5.10
2018-03-17T07:12:47.117Z,5.00
2018-03-17T07:15:14.982Z,4.30
2018-03-17T07:17:42.610Z,4.70
2018-03-17T07:20:10.129Z,4.70
2018-03-17T07:22:37.657Z,4.90
2018-03-17T07:25:05.157Z,4.73
2018-03-17T07:27:32.681Z,4.57
2018-03-17T07:30:00.184Z,4.73
2018-03-17T07:32:27.714Z,5.27
2018-03-17T07:34:55.250Z,4.90
2018-03-17T07:37:22.805Z,5.27
2018-03-17T07:39:50.316Z,4.97
2018-03-17T07:42:17.849Z,5.30
2018-03-17T07:44:45.358Z,4.87
2018-03-17T07:47:13.644Z,4.33
2018-03-17T07:49:41.168Z,4.80
2018-03-17T07:52:08.705Z,4.93
2018-03-17T07:54:36.234Z,5.27
2018-03-17T07:57:03.741Z,4.90
2018-03-17T07:59:31.265Z,5.27
2018-03-17T08:01:58.777Z,5.03
2018-03-17T08:04:27.068Z,5.33
2018-03-17T08:06:54.575Z,5.63
2018-03-17T08:09:22.109Z,5.63
2018-03-17T08:11:49.617Z,5.30
2018-03-17T08:14:17.957Z,4.97
2018-03-17T08:16:45.461Z,5.50
2018-03-17T08:19:13.756Z,5.10
2018-03-17T08:21:41.265Z,5.40
2018-03-17T08:24:08.797Z,4.93
2018-03-17T08:26:36.321Z,5.03
2018-03-17T08:29:04.608Z,5.20
2018-03-17T08:31:32.120Z,5.20
2018-03-17T08:33:59.645Z,5.30
2018-03-17T08:36:27.158Z,4.77
2018-03-17T08:38:55.449Z,4.70
2018-03-17T08:41:22.961Z,4.60
2018-03-17T08:43:52.981Z,4.83
2018-03-17T08:46:20.510Z,4.97
2018-03-17T08:48:48.032Z,4.40
2018-03-17T08:51:16.813Z,4.53
2018-03-17T08:53:45.104Z,4.73
2018-03-17T08:56:12.621Z,5.23
2018-03-17T08:58:40.145Z,4.83
2018-03-17T09:01:07.662Z,4.47
2018-03-17T09:03:35.948Z,5.00
2018-03-17T09:06:03.457Z,4.77
2018-03-17T09:08:30.998Z,5.27
2018-03-17T09:10:58.509Z,4.67
2018-03-17T09:13:26.806Z,4.57
2018-03-17T09:15:55.963Z,4.60
2018-03-17T09:18:25.136Z,5.00
2018-03-17T09:20:54.297Z,4.80
2018-03-17T09:23:23.478Z,4.47
2018-03-17T09:25:52.628Z,4.57
2018-03-17T09:28:21.800Z,4.60
2018-03-17T09:30:50.956Z,4.40
2018-03-17T09:33:20.124Z,4.00
2018-03-17T09:35:49.296Z,4.50
2018-03-17T09:38:18.477Z,4.27
2018-03-17T09:40:47.633Z,4.00
2018-03-17T09:43:16.813Z,4.33
2018-03-17T09:45:45.969Z,4.57
2018-03-17T09:48:15.164Z,4.67
2018-03-17T09:50:44.322Z,4.33
2018-03-17T09:53:13.508Z,4.63
2018-03-17T09:55:42.664Z,4.43
2018-03-17T09:58:11.842Z,4.13
2018-03-17T10:00:41.005Z,4.20
2018-03-17T10:03:10.188Z,4.77
2018-03-17T10:05:39.490Z,3.97
2018-03-17T10:08:08.642Z,4.43
2018-03-17T10:10:37.794Z,4.13
2018-03-17T10:13:06.964Z,3.97
2018-03-17T10:15:36.121Z,4.23
2018-03-17T10:18:05.326Z,3.87
2018-03-17T10:20:34.484Z,4.13
2018-03-17T10:23:03.718Z,4.43
2018-03-17T10:25:32.870Z,4.40
2018-03-17T10:28:02.051Z,4.13
2018-03-17T10:30:31.220Z,4.40
2018-03-17T10:33:00.480Z,3.80
2018-03-17T10:35:29.641Z,4.17
2018-03-17T10:37:58.822Z,3.90
2018-03-17T10:40:27.976Z,4.20
2018-03-17T10:42:57.148Z,4.07
2018-03-17T10:45:26.306Z,4.20
2018-03-17T10:47:55.476Z,3.90
2018-03-17T10:50:24.660Z,4.07
2018-03-17T10:52:53.838Z,4.40
2018-03-17T10:55:23.022Z,4.00
2018-03-17T10:57:52.184Z,3.87
2018-03-17T11:00:27.232Z,4.03
2018-03-17T11:02:56.384Z,4.07
2018-03-17T11:05:25.560Z,3.63
2018-03-17T11:07:54.737Z,3.63
2018-03-17T11:10:23.919Z,3.80
2018-03-17T11:12:53.069Z,4.00
2018-03-17T11:15:22.241Z,4.20
2018-03-17T11:17:51.399Z,3.33
2018-03-17T11:20:20.594Z,4.33
2018-03-17T11:22:49.878Z,4.20
2018-03-17T11:25:19.102Z,3.87
2018-03-17T11:27:48.260Z,4.23
2018-03-17T11:30:17.436Z,4.37
2018-03-17T11:32:46.596Z,3.77
2018-03-17T11:35:15.772Z,3.70
2018-03-17T11:40:19.073Z,3.83
2018-03-17T11:42:48.237Z,3.70
2018-03-17T11:45:17.412Z,3.30
2018-03-17T11:47:46.582Z,3.80
2018-03-17T11:50:15.756Z,3.67
2018-03-17T11:52:44.913Z,3.57
2018-03-17T11:55:14.092Z,3.20
2018-03-17T11:57:43.250Z,3.30
2018-03-17T12:00:12.433Z,3.67
2018-03-17T12:02:41.589Z,3.57
2018-03-17T12:05:10.756Z,3.50
2018-03-17T12:07:39.932Z,3.50
2018-03-17T12:10:09.148Z,3.80
2018-03-17T12:12:38.302Z,3.73
2018-03-17T12:15:07.480Z,3.90
2018-03-17T12:17:36.637Z,3.27
2018-03-17T12:20:05.808Z,3.10
2018-03-17T12:22:34.964Z,3.50
2018-03-17T12:25:04.145Z,3.57
2018-03-17T12:27:33.316Z,3.57
2018-03-17T12:30:02.513Z,3.20
2018-03-17T12:32:31.672Z,3.30
2018-03-17T12:35:00.873Z,3.80
2018-03-17T12:37:30.028Z,3.60
2018-03-17T12:39:59.229Z,3.10
2018-03-17T12:42:28.384Z,3.33
2018-03-17T12:44:57.561Z,3.57
2018-03-17T12:47:26.725Z,3.00
2018-03-17T12:49:55.896Z,3.43
2018-03-17T12:52:25.049Z,3.23
2018-03-17T12:54:54.220Z,3.40
2018-03-17T12:57:23.376Z,3.77
2018-03-17T12:59:52.563Z,3.30
2018-03-17T13:02:21.746Z,3.60
2018-03-17T13:04:50.924Z,2.90
2018-03-17T13:07:20.076Z,3.00
2018-03-17T13:09:49.252Z,3.27
2018-03-17T13:12:18.420Z,3.60
2018-03-17T13:14:47.596Z,3.30
2018-03-17T13:17:16.748Z,3.17
2018-03-17T13:19:45.976Z,3.57
2018-03-17T13:22:15.156Z,3.20
2018-03-17T13:24:44.342Z,3.40
2018-03-17T13:30:08.955Z,3.17
2018-03-17T13:32:47.413Z,3.40
2018-03-17T13:35:16.580Z,3.40
2018-03-17T13:37:45.732Z,3.60
2018-03-17T13:40:20.716Z,3.63
2018-03-17T13:42:50.008Z,3.70
2018-03-17T13:45:19.180Z,3.60
2018-03-17T13:47:48.332Z,3.20
2018-03-17T13:50:17.509Z,3.07
2018-03-17T13:52:46.665Z,3.07
2018-03-17T13:55:15.861Z,2.93
2018-03-17T13:57:45.017Z,3.43
2018-03-17T14:00:14.197Z,3.73
2018-03-17T14:02:43.348Z,4.70
2018-03-17T14:05:12.522Z,5.40
2018-03-17T14:07:41.683Z,3.73
2018-03-17T14:10:10.855Z,3.40
2018-03-17T14:12:40.009Z,3.37
2018-03-17T14:15:09.188Z,3.57
2018-03-17T14:17:38.349Z,3.40
2018-03-17T14:20:07.531Z,3.33
2018-03-17T14:22:36.688Z,3.40
2018-03-17T14:25:05.872Z,3.70
2018-03-17T14:27:35.032Z,3.80
2018-03-17T14:30:04.209Z,3.53
2018-03-17T14:32:33.386Z,3.20
2018-03-17T14:35:02.564Z,3.43
2018-03-17T14:37:31.716Z,3.07
2018-03-17T14:40:00.908Z,3.00
2018-03-17T14:42:30.061Z,3.60
2018-03-17T14:44:59.242Z,3.30
2018-03-17T14:47:28.397Z,3.10
2018-03-17T14:49:57.576Z,3.00
2018-03-17T14:52:26.799Z,3.67
2018-03-17T14:54:55.960Z,2.97
2018-03-17T14:57:25.113Z,3.00
2018-03-17T14:59:54.289Z,3.60
2018-03-17T15:02:23.444Z,3.43
2018-03-17T15:04:52.626Z,2.90
2018-03-17T15:07:21.784Z,3.23
2018-03-17T15:09:50.953Z,3.60
2018-03-17T15:12:20.116Z,3.57
2018-03-17T15:14:49.514Z,3.20
2018-03-17T15:17:18.732Z,3.10
2018-03-17T15:19:48.132Z,3.03
2018-03-17T15:22:17.284Z,2.97
2018-03-17T15:24:46.463Z,3.63
2018-03-17T15:27:15.631Z,3.30
2018-03-17T15:29:44.800Z,2.90
2018-03-17T15:32:13.943Z,3.27
2018-03-17T15:34:43.117Z,2.90
2018-03-17T15:37:12.276Z,3.23
2018-03-17T15:39:41.468Z,3.47
2018-03-17T15:42:10.628Z,2.87
2018-03-17T15:44:39.796Z,3.30
2018-03-17T15:47:08.949Z,3.00
2018-03-17T15:49:38.136Z,3.60
2018-03-17T15:52:07.300Z,2.73
2018-03-17T15:54:36.477Z,3.07
2018-03-17T15:57:05.636Z,3.57
2018-03-17T15:59:34.821Z,3.00
2018-03-17T16:02:03.979Z,2.97
2018-03-17T16:04:33.149Z,2.77
2018-03-17T16:07:02.322Z,2.77
2018-03-17T16:09:31.481Z,2.90
2018-03-17T16:12:00.664Z,3.37
2018-03-17T16:14:29.816Z,2.70
2018-03-17T16:16:59.005Z,3.30
2018-03-17T16:19:28.161Z,3.47
2018-03-17T16:21:57.327Z,3.57
2018-03-17T16:24:26.476Z,3.20
2018-03-17T16:26:55.649Z,3.10
2018-03-17T16:29:24.800Z,3.30
2018-03-17T16:31:53.989Z,3.20
2018-03-17T16:34:23.145Z,3.40
2018-03-17T16:36:52.316Z,3.00
2018-03-17T16:39:21.469Z,3.17
2018-03-17T16:41:50.640Z,3.23
2018-03-17T16:44:19.793Z,3.00
2018-03-17T16:46:48.964Z,3.47
2018-03-17T16:49:18.108Z,3.50
2018-03-17T16:54:15.112Z,2.97
2018-03-17T16:56:44.284Z,3.67
2018-03-17T16:59:13.434Z,3.53
2018-03-17T17:01:42.604Z,3.30
2018-03-17T17:04:11.765Z,3.03
2018-03-17T17:06:40.943Z,3.33
2018-03-17T17:09:10.128Z,3.17
2018-03-17T17:11:39.298Z,3.57
2018-03-17T17:14:08.461Z,3.17
2018-03-17T17:16:37.641Z,3.13
2018-03-17T17:19:06.796Z,3.20
2018-03-17T17:21:35.973Z,3.63
2018-03-17T17:24:05.124Z,3.63
2018-03-17T17:26:34.297Z,3.60
2018-03-17T17:29:03.511Z,3.80
2018-03-17T17:31:32.707Z,3.80
2018-03-17T17:34:01.908Z,3.33
2018-03-17T17:36:31.087Z,3.40
2018-03-17T17:39:00.242Z,3.73
2018-03-17T17:41:29.436Z,3.37
2018-03-17T17:43:58.604Z,3.63
2018-03-17T17:46:27.782Z,3.70
2018-03-17T17:48:56.948Z,3.17
2018-03-17T17:51:26.120Z,3.30
2018-03-17T17:53:55.273Z,3.20
2018-03-17T17:56:24.479Z,3.87
2018-03-17T17:58:53.626Z,3.73
2018-03-17T18:01:22.840Z,3.50
2018-03-17T18:03:51.992Z,3.40
2018-03-17T18:06:21.169Z,3.53
2018-03-17T18:08:50.322Z,3.60
2018-03-17T18:11:19.497Z,3.63
2018-03-17T18:13:48.657Z,3.60
2018-03-17T18:16:17.831Z,3.80
2018-03-17T18:18:46.992Z,3.50
2018-03-17T18:21:16.168Z,3.70
2018-03-17T18:23:45.332Z,3.50
2018-03-17T18:26:14.518Z,4.07
2018-03-17T18:28:43.672Z,3.60
2018-03-17T18:31:12.844Z,3.77
2018-03-17T18:33:41.997Z,3.50
2018-03-17T18:36:11.173Z,4.63
2018-03-17T18:38:40.328Z,3.83
2018-03-17T18:41:09.501Z,4.30
2018-03-17T18:43:38.917Z,4.33
2018-03-17T18:46:08.108Z,4.00
2018-03-17T18:48:37.267Z,4.30
2018-03-17T18:51:06.452Z,4.60
2018-03-17T18:53:35.622Z,3.70
2018-03-17T18:56:04.796Z,3.93
2018-03-17T18:58:33.947Z,4.37
2018-03-17T19:01:03.113Z,3.80
2018-03-17T19:03:32.269Z,4.30
2018-03-17T19:06:01.455Z,3.97
2018-03-17T19:08:30.622Z,3.80
2018-03-17T19:10:59.796Z,4.40
2018-03-17T19:13:28.960Z,4.50
2018-03-17T19:15:58.160Z,4.67
2018-03-17T19:18:27.403Z,4.40
2018-03-17T19:20:56.582Z,4.00
2018-03-17T19:23:25.727Z,5.30
2018-03-17T19:25:54.901Z,4.70
2018-03-17T19:28:24.091Z,4.80
2018-03-17T19:30:53.269Z,4.47
2018-03-17T19:33:22.452Z,4.90
2018-03-17T19:35:51.604Z,4.97
2018-03-17T19:38:20.790Z,4.50
2018-03-17T19:40:49.948Z,5.13
2018-03-17T19:43:19.121Z,4.50
2018-03-17T19:45:48.276Z,4.80
2018-03-17T19:48:17.452Z,5.50
2018-03-17T19:50:46.628Z,4.43
2018-03-17T19:53:15.825Z,4.30
2018-03-17T19:55:45.035Z,4.77
2018-03-17T19:58:14.176Z,4.87
2018-03-17T20:00:43.328Z,4.60
2018-03-17T20:03:12.504Z,4.37
2018-03-17T20:05:41.661Z,4.67
2018-03-17T20:08:10.844Z,4.67
2018-03-17T20:10:40.001Z,4.80
2018-03-17T20:13:09.185Z,4.70
2018-03-17T20:15:38.397Z,4.20
2018-03-17T20:18:07.549Z,5.00
2018-03-17T20:20:36.737Z,4.63
2018-03-17T20:23:05.888Z,4.57
2018-03-17T20:25:35.079Z,4.30
2018-03-17T20:28:04.253Z,5.07
2018-03-17T20:30:33.452Z,4.53
2018-03-17T20:33:02.628Z,4.80
2018-03-17T20:35:31.792Z,5.53
2018-03-17T20:38:00.996Z,5.13
2018-03-17T20:40:30.141Z,4.83
2018-03-17T20:42:59.317Z,5.00
2018-03-17T20:45:28.476Z,5.00
2018-03-17T20:47:57.660Z,4.50
2018-03-17T20:50:26.820Z,4.77
2018-03-17T20:52:55.995Z,4.27
2018-03-17T20:55:25.149Z,4.93
2018-03-17T20:57:54.389Z,5.00
2018-03-17T21:00:23.502Z,4.63
2018-03-17T21:02:52.684Z,4.67
2018-03-17T21:05:21.841Z,4.53
2018-03-17T21:07:51.016Z,4.70
2018-03-17T21:10:20.164Z,5.47
2018-03-17T21:12:49.337Z,5.13
2018-03-17T21:15:18.677Z,4.87
2018-03-17T21:17:47.860Z,4.77
2018-03-17T21:20:17.033Z,4.70
2018-03-17T21:22:46.204Z,4.30
2018-03-17T21:25:15.368Z,5.20
2018-03-17T21:27:44.546Z,5.40
2018-03-17T21:30:13.701Z,4.87
2018-03-17T21:32:42.889Z,4.97
2018-03-17T21:35:12.052Z,4.83
2018-03-17T21:37:41.225Z,4.83
2018-03-17T21:40:10.376Z,4.67
2018-03-17T21:42:39.559Z,5.00
2018-03-17T21:45:08.720Z,4.70
2018-03-17T21:47:37.938Z,4.80
2018-03-17T21:50:07.113Z,4.73
2018-03-17T21:52:36.332Z,4.40
2018-03-17T21:55:05.576Z,4.20
2018-03-17T21:57:34.764Z,4.97
2018-03-17T22:00:04.012Z,4.93
2018-03-17T22:02:33.168Z,4.63
2018-03-17T22:05:02.348Z,5.27
2018-03-17T22:07:31.903Z,4.87
2018-03-17T22:10:01.550Z,5.60
2018-03-17T22:12:30.713Z,4.97
2018-03-17T22:15:00.079Z,4.93
2018-03-17T22:17:29.228Z,4.63
2018-03-17T22:19:58.405Z,5.00
2018-03-17T22:22:27.936Z,4.93
2018-03-17T22:24:57.132Z,4.70
2018-03-17T22:27:26.289Z,5.40
2018-03-17T22:29:55.491Z,5.07
2018-03-17T22:32:24.639Z,5.10
2018-03-17T22:34:53.816Z,4.93
2018-03-17T22:37:22.987Z,5.00
2018-03-17T22:39:52.173Z,4.83
2018-03-17T22:42:21.320Z,5.43
2018-03-17T22:44:50.505Z,5.10
2018-03-17T22:47:19.673Z,5.60
2018-03-17T22:49:48.886Z,5.53
2018-03-17T22:52:18.142Z,5.37
2018-03-17T22:54:47.264Z,4.80
2018-03-17T22:57:16.429Z,5.13
2018-03-17T22:59:45.656Z,5.07
2018-03-17T23:02:14.985Z,5.37
2018-03-17T23:04:44.181Z,5.20
2018-03-17T23:07:13.404Z,5.03
2018-03-17T23:09:42.620Z,5.80
2018-03-17T23:12:11.781Z,5.03
2018-03-17T23:14:41.389Z,4.80
2018-03-17T23:17:10.564Z,5.40
2018-03-17T23:19:39.802Z,5.17
2018-03-17T23:22:08.980Z,5.40
2018-03-17T23:24:38.162Z,5.43
2018-03-17T23:27:07.341Z,4.77
2018-03-17T23:29:36.525Z,5.57
2018-03-17T23:32:05.717Z,5.30
2018-03-17T23:34:34.929Z,5.57
2018-03-17T23:37:04.092Z,5.07
2018-03-17T23:39:33.736Z,5.30
2018-03-17T23:42:02.916Z,5.57
2018-03-17T23:44:32.096Z,5.80
2018-03-17T23:47:01.358Z,5.20
2018-03-17T23:49:30.527Z,5.73
2018-03-17T23:51:59.696Z,5.73
2018-03-17T23:54:28.877Z,5.40
2018-03-17T23:56:58.073Z,5.80
2018-03-17T23:59:27.864Z,5.57
